Terminal Aerodrome Forecast
Issued by NWS

Home | Current Version | Previous Version | Text Only | Print | Product List | Glossary On
Versions: 1 2 3 4 5 6 7 8 9 10 11 12 13 14 15 16 17 18 19 20
000
FTUS45 KRIW 261525 AAA
TAFCPR
TAF AMD
KCPR 261525Z 2615/2712 06011KT 2SM -SN SCT005 BKN014
      TEMPO 2616/2620 1SM -SN BKN009
     FM262100 04010KT 3SM -SN SCT008 OVC012
     FM270900 29008KT 5SM -SN OVC015=

USA.gov is the U.S. government's official web portal to all federal, state and local government web resources and services.